Race Coverage Navigation

TS # 40 / Greensburg, IN  2019

 


TS STATS
TS Distance 60.8 
Total Distance 2368.1 
Miles To Go 672.26 
TS Climbing 2349 
Total Climbing
TS  Elevation
TS  Net Elevation 3743 
Map Filename Open Map 
Directions Filename  
Latitude 39.34 
Longitude -85.48 
Google Map  TimeStation Map 


TS Arrival Data
Arr Ord  #/Name Arrival DT TS Dst Avg This TS Avg Overall Ascending
 1 161 - Seana Hogan  06/21/2019 13:03 60.8  10.64  10 
 2 424 - Team i RON man Veterans supporting Veterans  06/21/2019 8:58 60.8  9.14  10.19 
 3 399 - Valerio Zamboni  06/21/2019 3:08 60.8  11.09  10.45 
 4 618 - GREGORY ROBINSON  06/20/2019 20:52 60.8  12.41  10.73 
 5 604 - Chieko Ozawa  06/20/2019 20:28 60.8  11.88  10.74 
 6 568 - Alexandra Meixner  06/20/2019 19:30 60.8  8.54  10.79 
 7 610 - Kabir Rachure  06/20/2019 19:49 60.8  12.45  10.79 
 8 529 - Isa Pulver  06/20/2019 15:25 60.8  14.77  11 
 9 559 - Team Martin RAAM 2019 (Martin Bergmeister)  06/20/2019 14:58 60.8  12.67  11.04 
 10 411 - Geoff Brunner  06/20/2019 14:03 60.8  14.03  11.09 
 11 442 - Joe Barr  06/20/2019 13:28 60.8  17.97  11.12 
 12 510 - John C. Tarlton  06/20/2019 11:05 60.8  12.94  11.24 
 13 603 - Alan Bradley  06/20/2019 7:59 60.8  9.24  11.41 
 14 615 - Philipp Amhof  06/20/2019 6:48 60.8  8.83  11.47 
 15 611 - Marcelo Soares " MIXIRICA "  06/20/2019 5:52 60.8  11.29  11.52 
 16 612 - Markus K. Brandl  06/20/2019 4:03 60.8  8.46  11.62 
 17 622 - Thomas Odom-Team Kyle Pease Foundation  06/20/2019 0:09 60.8  13.22  11.84 
 18 623 - Ultra Paka Racing Team (Daniel Polman)  06/19/2019 20:56 60.8  12.49  12.03 
 19 416 - Leah Goldstein  06/19/2019 19:19 60.8  11.88  12.13 
 20 367 - Daniela Genovesi  06/19/2019 17:24 60.8  13.36  12.25 
 21 329 - Peter Oyler  06/19/2019 16:23 60.8  13.92  12.35 
 22 617 - SOLO.kiwi (Craig Harper)  06/19/2019 14:35 60.8  13.41  12.44 
 23 609 - Jakob Olsen  06/18/2019 23:26 60.8  12.62  13.53 
 24 T210 - Bike Wine Team  06/22/2019 18:38 60.8  14.42  13.81 
 25 279 - Marko Baloh  06/18/2019 19:01 60.8  11.22  13.9 
 26 T207 - Team Life Time  06/22/2019 15:06 60.8  16  14.1 
 27 T409 - Serpentine Golden Girls  06/22/2019 8:34 60.8  13.98  14.69 
 28 T403 - EKJ Denmark  06/21/2019 21:38 60.8  16.81  15.74 
 29 T417 - Team4RAAM 2019 powered by TGW Living Logistics  06/21/2019 20:16 60.8  14.03  15.91 
 30 377 - Christoph Strasser  06/17/2019 20:35 60.8  12  16.01 
 31 T200 - AIR RELAX GoPro TEAM BRASIL  06/21/2019 18:05 60.8  17.71  16.1 
 32 T801 - Mind Over Matter  06/21/2019 17:55 60.8  15.86  16.17 
 33 T806 - Team SuperMarrow  06/21/2019 17:39 60.8  13.22  16.21 
 34 T402 - EA/WFP RAAM Team  06/21/2019 14:49 60.8  16.43  16.49 
 35 T204 - Lucan CRC  06/21/2019 14:01 60.8  18.24  16.57 
 36 T206 - Project Linear Acceleration  06/21/2019 13:37 60.8  16.51  16.62 
 37 T413 - TEAM BRASIL - SKIPPER  06/21/2019 13:47 60.8  17.88  16.63 
 38 T415 - TEAM FIRE VELO 935  06/21/2019 10:47 60.8  16.29  16.99 
 39 T202 - Integra Medical - BAA Racing  06/21/2019 9:25 60.8  19.2  17.11 
 40 T405 - High Rollers  06/21/2019 9:31 60.8  15.14  17.13 
 41 T412 - Team Aspect  06/21/2019 9:25 60.8  19.2  17.15 
 42 T414 - Brazil Nuts  06/21/2019 9:03 60.8  15.2  17.2 
 43 T803 - Team EndoPark  06/21/2019 8:05 60.8  17.05  17.34 
 44 T410 - Soap-Aid  06/21/2019 6:11 60.8  12.49  17.56 
 45 T418 - The Opportunists  06/20/2019 23:22 60.8  19.2  18.52 
 46 T406 - Operation Walk Midwest  06/20/2019 21:37 60.8  19.2  18.74 
 47 T808 - Antonia's Friends 2019  06/20/2019 20:19 60.8  20.49  18.99 
 48 T400 - Cantastic4  06/20/2019 19:35 60.8  18.61  19.03 
 49 T408 - Radeln-fuer-Kinder (Cycling-for-Kids)  06/20/2019 17:39 60.8  20.27  19.36 
 50 T416 - Team Rotary Raams Polio  06/20/2019 16:31 60.8  19.1  19.56 
 51 T804 - Team FSHD Skyland Trail  06/20/2019 16:35 60.8  29.9  19.57 
 52 T802 - Scorchers  06/20/2019 14:10 60.8  21.98  19.96 
 53 T201 - EAT WELL  06/20/2019 13:23 60.8  20.38  20.01 
 54 T407 - Julian Becker   06/20/2019 12:33 60.8  21.09  20.19 
 55 T807 - Team ZOE International  06/20/2019 12:25 60.8  20.61  20.27 
 56 T805 - Team Oceanside  06/20/2019 11:43 60.8  19.4  20.39 
 57 T401 - Data Techniques powered by Networks Centre  06/20/2019 7:19 60.8  19.72  21.12 
 58 T404 - Gentlemen of speed  06/20/2019 6:20 60.8  21.71  21.32 
 59 T800 - Backstedt Racing Project 14  06/20/2019 0:16 60.8  22.66  22.6 
 60 T411 - team alpha - tischlerei groemmer  06/19/2019 23:42 60.8  22.66  22.69